sensor_id;sensor_type;location;lat;lon;timestamp;P1;durP1;ratioP1;P2;durP2;ratioP2
69956;SDS011;57283;54.816;9.482;2022-10-31T00:01:23;16.50;;;9.67;;
69956;SDS011;57283;54.816;9.482;2022-10-31T00:03:54;17.90;;;10.43;;
69956;SDS011;57283;54.816;9.482;2022-10-31T00:06:22;15.23;;;9.50;;
69956;SDS011;57283;54.816;9.482;2022-10-31T00:08:51;16.92;;;9.40;;
69956;SDS011;57283;54.816;9.482;2022-10-31T00:11:20;15.80;;;9.40;;
69956;SDS011;57283;54.816;9.482;2022-10-31T00:13:48;17.30;;;8.93;;
69956;SDS011;57283;54.816;9.482;2022-10-31T00:16:17;16.17;;;10.05;;
69956;SDS011;57283;54.816;9.482;2022-10-31T00:18:47;16.05;;;9.18;;
69956;SDS011;57283;54.816;9.482;2022-10-31T00:21:17;16.05;;;9.18;;
69956;SDS011;57283;54.816;9.482;2022-10-31T00:23:46;17.13;;;9.45;;
69956;SDS011;57283;54.816;9.482;2022-10-31T00:26:14;16.77;;;9.57;;
69956;SDS011;57283;54.816;9.482;2022-10-31T00:28:42;17.17;;;10.10;;
69956;SDS011;57283;54.816;9.482;2022-10-31T00:31:10;17.48;;;9.60;;
69956;SDS011;57283;54.816;9.482;2022-10-31T00:33:39;19.98;;;9.85;;
69956;SDS011;57283;54.816;9.482;2022-10-31T00:36:08;17.13;;;9.52;;
69956;SDS011;57283;54.816;9.482;2022-10-31T00:38:40;20.80;;;9.77;;
69956;SDS011;57283;54.816;9.482;2022-10-31T00:41:08;17.27;;;9.68;;
69956;SDS011;57283;54.816;9.482;2022-10-31T00:43:36;17.33;;;9.45;;
69956;SDS011;57283;54.816;9.482;2022-10-31T00:46:04;20.35;;;9.57;;
69956;SDS011;57283;54.816;9.482;2022-10-31T00:48:32;17.38;;;9.55;;
69956;SDS011;57283;54.816;9.482;2022-10-31T00:51:00;17.27;;;8.97;;
69956;SDS011;57283;54.816;9.482;2022-10-31T00:53:27;19.60;;;9.80;;
69956;SDS011;57283;54.816;9.482;2022-10-31T00:55:56;18.73;;;9.82;;
69956;SDS011;57283;54.816;9.482;2022-10-31T00:58:24;26.23;;;10.05;;
69956;SDS011;57283;54.816;9.482;2022-10-31T01:00:52;17.67;;;9.35;;
69956;SDS011;57283;54.816;9.482;2022-10-31T01:03:22;20.00;;;9.53;;
69956;SDS011;57283;54.816;9.482;2022-10-31T01:05:57;15.75;;;9.02;;
69956;SDS011;57283;54.816;9.482;2022-10-31T01:08:26;19.27;;;9.60;;
69956;SDS011;57283;54.816;9.482;2022-10-31T01:11:00;17.13;;;9.20;;
69956;SDS011;57283;54.816;9.482;2022-10-31T01:13:30;18.45;;;8.95;;
69956;SDS011;57283;54.816;9.482;2022-10-31T01:15:58;18.57;;;9.23;;
69956;SDS011;57283;54.816;9.482;2022-10-31T01:18:27;18.65;;;9.27;;
69956;SDS011;57283;54.816;9.482;2022-10-31T01:20:59;17.92;;;9.60;;
69956;SDS011;57283;54.816;9.482;2022-10-31T01:23:28;19.17;;;9.48;;
69956;SDS011;57283;54.816;9.482;2022-10-31T01:26:04;17.38;;;9.10;;
69956;SDS011;57283;54.816;9.482;2022-10-31T01:28:34;20.67;;;9.67;;
69956;SDS011;57283;54.816;9.482;2022-10-31T01:31:03;17.92;;;9.00;;
69956;SDS011;57283;54.816;9.482;2022-10-31T01:33:33;17.67;;;9.50;;
69956;SDS011;57283;54.816;9.482;2022-10-31T01:36:01;18.05;;;9.55;;
69956;SDS011;57283;54.816;9.482;2022-10-31T01:38:37;20.10;;;10.45;;
69956;SDS011;57283;54.816;9.482;2022-10-31T01:41:06;17.43;;;9.67;;
69956;SDS011;57283;54.816;9.482;2022-10-31T01:43:43;18.63;;;10.18;;
69956;SDS011;57283;54.816;9.482;2022-10-31T01:46:12;23.15;;;9.80;;
69956;SDS011;57283;54.816;9.482;2022-10-31T01:48:41;22.23;;;9.23;;
69956;SDS011;57283;54.816;9.482;2022-10-31T01:51:09;19.73;;;10.15;;
69956;SDS011;57283;54.816;9.482;2022-10-31T01:53:41;22.67;;;9.77;;
69956;SDS011;57283;54.816;9.482;2022-10-31T01:56:11;27.70;;;10.77;;
69956;SDS011;57283;54.816;9.482;2022-10-31T01:58:40;21.38;;;10.57;;
69956;SDS011;57283;54.816;9.482;2022-10-31T02:01:09;28.20;;;11.13;;
69956;SDS011;57283;54.816;9.482;2022-10-31T02:03:37;23.27;;;11.10;;
69956;SDS011;57283;54.816;9.482;2022-10-31T02:06:06;20.73;;;10.40;;
69956;SDS011;57283;54.816;9.482;2022-10-31T02:08:41;23.40;;;10.77;;
69956;SDS011;57283;54.816;9.482;2022-10-31T02:11:12;23.83;;;10.70;;
69956;SDS011;57283;54.816;9.482;2022-10-31T02:13:40;25.20;;;10.90;;
69956;SDS011;57283;54.816;9.482;2022-10-31T02:16:09;27.20;;;11.85;;
69956;SDS011;57283;54.816;9.482;2022-10-31T02:18:37;26.03;;;11.00;;
69956;SDS011;57283;54.816;9.482;2022-10-31T02:21:07;22.88;;;10.80;;
69956;SDS011;57283;54.816;9.482;2022-10-31T02:24:00;23.50;;;11.70;;
69956;SDS011;57283;54.816;9.482;2022-10-31T02:26:57;23.73;;;10.90;;
69956;SDS011;57283;54.816;9.482;2022-10-31T02:32:36;22.70;;;10.07;;
69956;SDS011;57283;54.816;9.482;2022-10-31T02:35:16;24.10;;;10.98;;
69956;SDS011;57283;54.816;9.482;2022-10-31T02:38:08;23.70;;;10.75;;
69956;SDS011;57283;54.816;9.482;2022-10-31T02:40:47;26.52;;;11.32;;
69956;SDS011;57283;54.816;9.482;2022-10-31T02:43:21;21.95;;;10.25;;
69956;SDS011;57283;54.816;9.482;2022-10-31T02:45:55;22.23;;;10.57;;
69956;SDS011;57283;54.816;9.482;2022-10-31T02:48:28;24.23;;;11.13;;
69956;SDS011;57283;54.816;9.482;2022-10-31T02:50:59;25.42;;;11.57;;
69956;SDS011;57283;54.816;9.482;2022-10-31T02:53:31;24.00;;;10.70;;
69956;SDS011;57283;54.816;9.482;2022-10-31T02:56:01;23.13;;;10.77;;
69956;SDS011;57283;54.816;9.482;2022-10-31T02:58:33;26.63;;;10.83;;
69956;SDS011;57283;54.816;9.482;2022-10-31T03:04:05;25.40;;;11.02;;
69956;SDS011;57283;54.816;9.482;2022-10-31T03:06:49;21.40;;;10.30;;
69956;SDS011;57283;54.816;9.482;2022-10-31T03:09:25;25.15;;;10.48;;
69956;SDS011;57283;54.816;9.482;2022-10-31T03:12:02;20.77;;;11.00;;
69956;SDS011;57283;54.816;9.482;2022-10-31T03:14:36;21.70;;;10.63;;
69956;SDS011;57283;54.816;9.482;2022-10-31T03:17:10;23.50;;;11.18;;
69956;SDS011;57283;54.816;9.482;2022-10-31T03:19:45;21.60;;;9.80;;
69956;SDS011;57283;54.816;9.482;2022-10-31T03:22:18;21.45;;;10.20;;
69956;SDS011;57283;54.816;9.482;2022-10-31T03:24:48;20.33;;;10.20;;
69956;SDS011;57283;54.816;9.482;2022-10-31T03:27:20;21.48;;;10.70;;
69956;SDS011;57283;54.816;9.482;2022-10-31T03:29:51;21.60;;;10.55;;
69956;SDS011;57283;54.816;9.482;2022-10-31T03:32:23;23.55;;;11.10;;
69956;SDS011;57283;54.816;9.482;2022-10-31T03:34:56;23.60;;;10.35;;
69956;SDS011;57283;54.816;9.482;2022-10-31T03:37:29;23.63;;;11.47;;
69956;SDS011;57283;54.816;9.482;2022-10-31T03:40:00;22.92;;;11.25;;
69956;SDS011;57283;54.816;9.482;2022-10-31T03:42:30;24.27;;;11.52;;
69956;SDS011;57283;54.816;9.482;2022-10-31T03:45:01;27.50;;;11.77;;
69956;SDS011;57283;54.816;9.482;2022-10-31T03:47:32;24.25;;;10.70;;
69956;SDS011;57283;54.816;9.482;2022-10-31T03:50:02;27.33;;;11.20;;
69956;SDS011;57283;54.816;9.482;2022-10-31T03:52:32;25.58;;;11.48;;
69956;SDS011;57283;54.816;9.482;2022-10-31T03:55:05;23.75;;;11.57;;
69956;SDS011;57283;54.816;9.482;2022-10-31T03:57:37;24.05;;;10.93;;
69956;SDS011;57283;54.816;9.482;2022-10-31T04:00:10;25.83;;;11.55;;
69956;SDS011;57283;54.816;9.482;2022-10-31T04:02:41;23.07;;;11.27;;
69956;SDS011;57283;54.816;9.482;2022-10-31T04:05:14;27.63;;;11.63;;
69956;SDS011;57283;54.816;9.482;2022-10-31T04:07:44;28.27;;;11.75;;
69956;SDS011;57283;54.816;9.482;2022-10-31T04:10:16;29.33;;;11.50;;
69956;SDS011;57283;54.816;9.482;2022-10-31T04:12:47;32.33;;;11.20;;
69956;SDS011;57283;54.816;9.482;2022-10-31T04:15:19;49.03;;;11.23;;
69956;SDS011;57283;54.816;9.482;2022-10-31T04:17:50;43.78;;;11.10;;
69956;SDS011;57283;54.816;9.482;2022-10-31T04:20:30;50.42;;;11.48;;
69956;SDS011;57283;54.816;9.482;2022-10-31T04:22:59;43.20;;;10.32;;
69956;SDS011;57283;54.816;9.482;2022-10-31T04:25:27;31.83;;;9.77;;
69956;SDS011;57283;54.816;9.482;2022-10-31T04:27:54;27.03;;;9.40;;
69956;SDS011;57283;54.816;9.482;2022-10-31T04:30:23;22.77;;;10.45;;
69956;SDS011;57283;54.816;9.482;2022-10-31T04:32:50;32.50;;;10.02;;
69956;SDS011;57283;54.816;9.482;2022-10-31T04:35:18;25.38;;;9.07;;
69956;SDS011;57283;54.816;9.482;2022-10-31T04:37:47;19.17;;;8.25;;
69956;SDS011;57283;54.816;9.482;2022-10-31T04:40:15;18.97;;;7.77;;
69956;SDS011;57283;54.816;9.482;2022-10-31T04:42:43;19.00;;;8.93;;
69956;SDS011;57283;54.816;9.482;2022-10-31T04:45:10;17.90;;;8.32;;
69956;SDS011;57283;54.816;9.482;2022-10-31T04:47:45;20.13;;;8.30;;
69956;SDS011;57283;54.816;9.482;2022-10-31T04:50:13;20.35;;;8.68;;
69956;SDS011;57283;54.816;9.482;2022-10-31T04:52:41;16.97;;;8.33;;
69956;SDS011;57283;54.816;9.482;2022-10-31T04:55:11;17.13;;;8.48;;
69956;SDS011;57283;54.816;9.482;2022-10-31T04:57:40;17.98;;;8.23;;
69956;SDS011;57283;54.816;9.482;2022-10-31T05:00:08;17.77;;;7.97;;
69956;SDS011;57283;54.816;9.482;2022-10-31T05:02:42;16.90;;;7.43;;
69956;SDS011;57283;54.816;9.482;2022-10-31T05:05:10;17.47;;;8.10;;
69956;SDS011;57283;54.816;9.482;2022-10-31T05:07:39;16.55;;;7.60;;
69956;SDS011;57283;54.816;9.482;2022-10-31T05:10:08;16.15;;;7.88;;
69956;SDS011;57283;54.816;9.482;2022-10-31T05:12:44;17.38;;;7.78;;
69956;SDS011;57283;54.816;9.482;2022-10-31T05:15:13;17.83;;;7.25;;
69956;SDS011;57283;54.816;9.482;2022-10-31T05:17:41;19.13;;;7.53;;
69956;SDS011;57283;54.816;9.482;2022-10-31T05:20:09;22.85;;;8.88;;
69956;SDS011;57283;54.816;9.482;2022-10-31T05:22:41;46.33;;;8.60;;
69956;SDS011;57283;54.816;9.482;2022-10-31T05:25:09;23.60;;;7.75;;
69956;SDS011;57283;54.816;9.482;2022-10-31T05:27:39;16.45;;;7.70;;
69956;SDS011;57283;54.816;9.482;2022-10-31T05:30:08;35.37;;;7.80;;
69956;SDS011;57283;54.816;9.482;2022-10-31T05:32:37;38.45;;;7.95;;
69956;SDS011;57283;54.816;9.482;2022-10-31T05:35:06;32.05;;;7.65;;
69956;SDS011;57283;54.816;9.482;2022-10-31T05:37:35;53.55;;;8.90;;
69956;SDS011;57283;54.816;9.482;2022-10-31T05:40:03;18.75;;;6.97;;
69956;SDS011;57283;54.816;9.482;2022-10-31T05:42:33;27.93;;;6.33;;
69956;SDS011;57283;54.816;9.482;2022-10-31T05:45:03;23.60;;;7.15;;
69956;SDS011;57283;54.816;9.482;2022-10-31T05:47:31;24.35;;;6.25;;
69956;SDS011;57283;54.816;9.482;2022-10-31T05:49:59;26.60;;;6.82;;
69956;SDS011;57283;54.816;9.482;2022-10-31T05:52:27;20.13;;;6.40;;
69956;SDS011;57283;54.816;9.482;2022-10-31T05:54:55;15.73;;;6.80;;
69956;SDS011;57283;54.816;9.482;2022-10-31T05:57:22;16.50;;;7.20;;
69956;SDS011;57283;54.816;9.482;2022-10-31T05:59:50;29.80;;;7.00;;
69956;SDS011;57283;54.816;9.482;2022-10-31T06:02:21;11.45;;;5.93;;
69956;SDS011;57283;54.816;9.482;2022-10-31T06:04:49;12.68;;;6.40;;
69956;SDS011;57283;54.816;9.482;2022-10-31T06:07:17;13.13;;;6.33;;
69956;SDS011;57283;54.816;9.482;2022-10-31T06:09:45;16.23;;;5.43;;
69956;SDS011;57283;54.816;9.482;2022-10-31T06:12:13;11.02;;;5.80;;
69956;SDS011;57283;54.816;9.482;2022-10-31T06:14:40;11.05;;;5.80;;
69956;SDS011;57283;54.816;9.482;2022-10-31T06:17:08;11.35;;;6.15;;
69956;SDS011;57283;54.816;9.482;2022-10-31T06:19:37;9.87;;;5.53;;
69956;SDS011;57283;54.816;9.482;2022-10-31T06:22:05;15.23;;;6.20;;
69956;SDS011;57283;54.816;9.482;2022-10-31T06:24:33;11.07;;;5.50;;
69956;SDS011;57283;54.816;9.482;2022-10-31T06:27:00;8.90;;;5.10;;
69956;SDS011;57283;54.816;9.482;2022-10-31T06:29:28;11.48;;;6.03;;
69956;SDS011;57283;54.816;9.482;2022-10-31T06:31:56;23.43;;;5.90;;
69956;SDS011;57283;54.816;9.482;2022-10-31T06:34:24;11.00;;;5.45;;
69956;SDS011;57283;54.816;9.482;2022-10-31T06:36:53;9.43;;;5.28;;
69956;SDS011;57283;54.816;9.482;2022-10-31T06:39:20;10.65;;;5.97;;
69956;SDS011;57283;54.816;9.482;2022-10-31T06:41:48;9.52;;;5.35;;
69956;SDS011;57283;54.816;9.482;2022-10-31T06:44:16;8.87;;;4.60;;
69956;SDS011;57283;54.816;9.482;2022-10-31T06:46:45;13.15;;;5.57;;
69956;SDS011;57283;54.816;9.482;2022-10-31T06:49:13;15.88;;;5.43;;
69956;SDS011;57283;54.816;9.482;2022-10-31T06:51:41;12.88;;;5.60;;
69956;SDS011;57283;54.816;9.482;2022-10-31T06:54:11;10.15;;;5.47;;
69956;SDS011;57283;54.816;9.482;2022-10-31T06:56:38;9.87;;;5.13;;
69956;SDS011;57283;54.816;9.482;2022-10-31T06:59:06;9.80;;;5.28;;
69956;SDS011;57283;54.816;9.482;2022-10-31T07:01:34;10.20;;;4.93;;
69956;SDS011;57283;54.816;9.482;2022-10-31T07:04:02;9.57;;;5.00;;
69956;SDS011;57283;54.816;9.482;2022-10-31T07:06:30;9.20;;;4.55;;
69956;SDS011;57283;54.816;9.482;2022-10-31T07:08:58;8.70;;;4.73;;
69956;SDS011;57283;54.816;9.482;2022-10-31T07:11:27;8.20;;;4.82;;
69956;SDS011;57283;54.816;9.482;2022-10-31T07:13:54;9.40;;;4.82;;
69956;SDS011;57283;54.816;9.482;2022-10-31T07:16:23;12.10;;;5.05;;
69956;SDS011;57283;54.816;9.482;2022-10-31T07:18:51;14.93;;;6.75;;
69956;SDS011;57283;54.816;9.482;2022-10-31T07:21:20;19.37;;;7.50;;
69956;SDS011;57283;54.816;9.482;2022-10-31T07:23:48;15.65;;;6.63;;
69956;SDS011;57283;54.816;9.482;2022-10-31T07:26:15;10.50;;;5.10;;
69956;SDS011;57283;54.816;9.482;2022-10-31T07:28:45;9.05;;;5.15;;
69956;SDS011;57283;54.816;9.482;2022-10-31T07:31:13;9.90;;;5.32;;
69956;SDS011;57283;54.816;9.482;2022-10-31T07:33:40;8.77;;;4.83;;
69956;SDS011;57283;54.816;9.482;2022-10-31T07:36:08;8.77;;;5.00;;
69956;SDS011;57283;54.816;9.482;2022-10-31T07:38:36;11.30;;;5.15;;
69956;SDS011;57283;54.816;9.482;2022-10-31T07:41:04;8.85;;;4.90;;
69956;SDS011;57283;54.816;9.482;2022-10-31T07:43:32;9.07;;;4.95;;
69956;SDS011;57283;54.816;9.482;2022-10-31T07:46:01;10.20;;;4.57;;
69956;SDS011;57283;54.816;9.482;2022-10-31T07:48:29;9.18;;;4.75;;
69956;SDS011;57283;54.816;9.482;2022-10-31T07:50:56;8.88;;;5.20;;
69956;SDS011;57283;54.816;9.482;2022-10-31T07:53:24;9.40;;;4.90;;
69956;SDS011;57283;54.816;9.482;2022-10-31T07:55:52;8.73;;;4.75;;
69956;SDS011;57283;54.816;9.482;2022-10-31T07:58:20;9.10;;;4.77;;
69956;SDS011;57283;54.816;9.482;2022-10-31T08:00:47;9.38;;;5.07;;
69956;SDS011;57283;54.816;9.482;2022-10-31T08:03:17;8.52;;;4.60;;
69956;SDS011;57283;54.816;9.482;2022-10-31T08:05:46;11.07;;;5.20;;
69956;SDS011;57283;54.816;9.482;2022-10-31T08:08:14;8.40;;;4.60;;
69956;SDS011;57283;54.816;9.482;2022-10-31T08:10:42;10.00;;;4.63;;
69956;SDS011;57283;54.816;9.482;2022-10-31T08:13:11;7.88;;;4.32;;
69956;SDS011;57283;54.816;9.482;2022-10-31T08:15:40;9.13;;;5.15;;
69956;SDS011;57283;54.816;9.482;2022-10-31T08:18:10;8.27;;;4.50;;
69956;SDS011;57283;54.816;9.482;2022-10-31T08:20:40;7.88;;;4.78;;
69956;SDS011;57283;54.816;9.482;2022-10-31T08:23:09;7.57;;;4.20;;
69956;SDS011;57283;54.816;9.482;2022-10-31T08:25:38;8.50;;;4.70;;
69956;SDS011;57283;54.816;9.482;2022-10-31T08:28:08;8.40;;;4.57;;
69956;SDS011;57283;54.816;9.482;2022-10-31T08:30:37;7.95;;;4.47;;
69956;SDS011;57283;54.816;9.482;2022-10-31T08:33:07;12.85;;;4.80;;
69956;SDS011;57283;54.816;9.482;2022-10-31T08:35:37;8.73;;;4.50;;
69956;SDS011;57283;54.816;9.482;2022-10-31T08:38:07;8.70;;;4.82;;
69956;SDS011;57283;54.816;9.482;2022-10-31T08:40:36;9.63;;;4.72;;
69956;SDS011;57283;54.816;9.482;2022-10-31T08:43:04;7.53;;;4.38;;
69956;SDS011;57283;54.816;9.482;2022-10-31T08:45:33;7.30;;;4.25;;
69956;SDS011;57283;54.816;9.482;2022-10-31T08:48:02;18.10;;;4.57;;
69956;SDS011;57283;54.816;9.482;2022-10-31T08:50:31;7.50;;;4.38;;
69956;SDS011;57283;54.816;9.482;2022-10-31T08:53:01;7.82;;;4.00;;
69956;SDS011;57283;54.816;9.482;2022-10-31T08:55:33;7.35;;;4.40;;
69956;SDS011;57283;54.816;9.482;2022-10-31T08:58:02;7.40;;;3.92;;
69956;SDS011;57283;54.816;9.482;2022-10-31T09:00:30;6.03;;;4.00;;
69956;SDS011;57283;54.816;9.482;2022-10-31T09:03:00;6.30;;;3.97;;
69956;SDS011;57283;54.816;9.482;2022-10-31T09:05:30;6.63;;;3.58;;
69956;SDS011;57283;54.816;9.482;2022-10-31T09:08:00;6.40;;;3.70;;
69956;SDS011;57283;54.816;9.482;2022-10-31T09:10:30;5.45;;;3.90;;
69956;SDS011;57283;54.816;9.482;2022-10-31T09:13:01;6.47;;;3.60;;
69956;SDS011;57283;54.816;9.482;2022-10-31T09:15:32;6.13;;;3.90;;
69956;SDS011;57283;54.816;9.482;2022-10-31T09:18:01;5.57;;;3.60;;
69956;SDS011;57283;54.816;9.482;2022-10-31T09:20:30;7.20;;;3.88;;
69956;SDS011;57283;54.816;9.482;2022-10-31T09:23:00;7.13;;;4.28;;
69956;SDS011;57283;54.816;9.482;2022-10-31T09:25:30;5.37;;;3.80;;
69956;SDS011;57283;54.816;9.482;2022-10-31T09:28:01;7.47;;;4.20;;
69956;SDS011;57283;54.816;9.482;2022-10-31T09:30:32;7.35;;;4.00;;
69956;SDS011;57283;54.816;9.482;2022-10-31T09:33:02;6.32;;;3.50;;
69956;SDS011;57283;54.816;9.482;2022-10-31T09:35:31;5.40;;;3.58;;
69956;SDS011;57283;54.816;9.482;2022-10-31T09:38:00;6.67;;;3.03;;
69956;SDS011;57283;54.816;9.482;2022-10-31T09:40:30;5.25;;;3.10;;
69956;SDS011;57283;54.816;9.482;2022-10-31T09:43:03;5.03;;;2.95;;
69956;SDS011;57283;54.816;9.482;2022-10-31T09:45:42;6.07;;;3.50;;
69956;SDS011;57283;54.816;9.482;2022-10-31T09:48:27;5.95;;;3.15;;
69956;SDS011;57283;54.816;9.482;2022-10-31T09:51:05;5.27;;;2.93;;
69956;SDS011;57283;54.816;9.482;2022-10-31T09:53:38;6.93;;;3.40;;
69956;SDS011;57283;54.816;9.482;2022-10-31T09:56:11;5.07;;;3.15;;
69956;SDS011;57283;54.816;9.482;2022-10-31T09:58:43;5.88;;;3.25;;
69956;SDS011;57283;54.816;9.482;2022-10-31T10:01:17;6.88;;;3.15;;
69956;SDS011;57283;54.816;9.482;2022-10-31T10:03:55;5.90;;;3.27;;
69956;SDS011;57283;54.816;9.482;2022-10-31T10:06:29;6.70;;;3.08;;
69956;SDS011;57283;54.816;9.482;2022-10-31T10:09:01;8.65;;;4.32;;
69956;SDS011;57283;54.816;9.482;2022-10-31T10:11:33;6.65;;;3.65;;
69956;SDS011;57283;54.816;9.482;2022-10-31T10:14:22;5.72;;;3.08;;
69956;SDS011;57283;54.816;9.482;2022-10-31T10:17:07;5.63;;;2.60;;
69956;SDS011;57283;54.816;9.482;2022-10-31T10:19:56;5.57;;;3.22;;
69956;SDS011;57283;54.816;9.482;2022-10-31T10:22:36;4.82;;;2.63;;
69956;SDS011;57283;54.816;9.482;2022-10-31T10:25:13;6.07;;;3.00;;
69956;SDS011;57283;54.816;9.482;2022-10-31T10:27:46;6.93;;;3.00;;
69956;SDS011;57283;54.816;9.482;2022-10-31T10:30:20;4.97;;;2.53;;
69956;SDS011;57283;54.816;9.482;2022-10-31T10:32:51;5.18;;;2.60;;
69956;SDS011;57283;54.816;9.482;2022-10-31T10:35:22;7.63;;;2.70;;
69956;SDS011;57283;54.816;9.482;2022-10-31T10:37:57;6.47;;;2.88;;
69956;SDS011;57283;54.816;9.482;2022-10-31T10:40:29;5.97;;;2.63;;
69956;SDS011;57283;54.816;9.482;2022-10-31T10:42:59;8.40;;;3.00;;
69956;SDS011;57283;54.816;9.482;2022-10-31T10:45:53;7.72;;;2.78;;
69956;SDS011;57283;54.816;9.482;2022-10-31T10:48:57;7.25;;;2.80;;
69956;SDS011;57283;54.816;9.482;2022-10-31T10:51:33;7.47;;;2.80;;
69956;SDS011;57283;54.816;9.482;2022-10-31T10:54:37;6.03;;;2.95;;
69956;SDS011;57283;54.816;9.482;2022-10-31T10:57:12;9.40;;;3.80;;
69956;SDS011;57283;54.816;9.482;2022-10-31T10:59:50;6.13;;;3.10;;
69956;SDS011;57283;54.816;9.482;2022-10-31T11:02:21;7.25;;;2.95;;
69956;SDS011;57283;54.816;9.482;2022-10-31T11:04:51;7.57;;;2.83;;
69956;SDS011;57283;54.816;9.482;2022-10-31T11:07:20;12.05;;;2.95;;
69956;SDS011;57283;54.816;9.482;2022-10-31T11:09:48;6.67;;;2.30;;
69956;SDS011;57283;54.816;9.482;2022-10-31T11:12:17;7.15;;;2.13;;
69956;SDS011;57283;54.816;9.482;2022-10-31T11:14:50;6.20;;;1.90;;
69956;SDS011;57283;54.816;9.482;2022-10-31T11:17:27;7.05;;;2.33;;
69956;SDS011;57283;54.816;9.482;2022-10-31T11:20:03;6.35;;;2.20;;
69956;SDS011;57283;54.816;9.482;2022-10-31T11:22:33;6.03;;;2.40;;
69956;SDS011;57283;54.816;9.482;2022-10-31T11:25:11;6.88;;;2.53;;
69956;SDS011;57283;54.816;9.482;2022-10-31T11:27:58;7.13;;;2.40;;
69956;SDS011;57283;54.816;9.482;2022-10-31T11:30:26;5.93;;;2.15;;
69956;SDS011;57283;54.816;9.482;2022-10-31T11:32:55;7.25;;;2.28;;
69956;SDS011;57283;54.816;9.482;2022-10-31T11:35:24;4.83;;;1.93;;
69956;SDS011;57283;54.816;9.482;2022-10-31T11:37:53;6.13;;;1.83;;
69956;SDS011;57283;54.816;9.482;2022-10-31T11:40:26;6.40;;;2.08;;
69956;SDS011;57283;54.816;9.482;2022-10-31T11:42:54;6.95;;;2.15;;
69956;SDS011;57283;54.816;9.482;2022-10-31T11:45:28;5.63;;;2.00;;
69956;SDS011;57283;54.816;9.482;2022-10-31T11:48:01;5.77;;;2.00;;
69956;SDS011;57283;54.816;9.482;2022-10-31T11:50:41;4.72;;;1.83;;
69956;SDS011;57283;54.816;9.482;2022-10-31T11:53:16;6.05;;;2.10;;
69956;SDS011;57283;54.816;9.482;2022-10-31T11:55:45;6.30;;;1.90;;
69956;SDS011;57283;54.816;9.482;2022-10-31T11:58:21;5.35;;;1.88;;
69956;SDS011;57283;54.816;9.482;2022-10-31T12:00:51;8.27;;;2.00;;
69956;SDS011;57283;54.816;9.482;2022-10-31T12:03:28;5.65;;;2.05;;
69956;SDS011;57283;54.816;9.482;2022-10-31T12:06:08;5.40;;;1.92;;
69956;SDS011;57283;54.816;9.482;2022-10-31T12:08:39;5.75;;;2.30;;
69956;SDS011;57283;54.816;9.482;2022-10-31T12:11:11;4.47;;;1.80;;
69956;SDS011;57283;54.816;9.482;2022-10-31T12:13:51;5.67;;;1.70;;
69956;SDS011;57283;54.816;9.482;2022-10-31T12:16:31;6.72;;;2.42;;
69956;SDS011;57283;54.816;9.482;2022-10-31T12:19:06;6.40;;;1.90;;
69956;SDS011;57283;54.816;9.482;2022-10-31T12:21:53;4.88;;;1.70;;
69956;SDS011;57283;54.816;9.482;2022-10-31T12:24:34;5.95;;;2.00;;
69956;SDS011;57283;54.816;9.482;2022-10-31T12:27:19;5.17;;;1.87;;
69956;SDS011;57283;54.816;9.482;2022-10-31T12:30:06;5.93;;;1.60;;
69956;SDS011;57283;54.816;9.482;2022-10-31T12:32:48;6.68;;;1.75;;
69956;SDS011;57283;54.816;9.482;2022-10-31T12:35:40;4.55;;;1.88;;
69956;SDS011;57283;54.816;9.482;2022-10-31T12:38:24;5.43;;;1.80;;
69956;SDS011;57283;54.816;9.482;2022-10-31T12:41:13;4.57;;;1.60;;
69956;SDS011;57283;54.816;9.482;2022-10-31T12:43:52;4.57;;;1.33;;
69956;SDS011;57283;54.816;9.482;2022-10-31T12:46:25;5.50;;;1.73;;
69956;SDS011;57283;54.816;9.482;2022-10-31T12:49:17;3.90;;;1.73;;
69956;SDS011;57283;54.816;9.482;2022-10-31T12:52:03;8.00;;;2.47;;
69956;SDS011;57283;54.816;9.482;2022-10-31T12:54:47;6.53;;;3.10;;
69956;SDS011;57283;54.816;9.482;2022-10-31T12:57:27;5.00;;;2.10;;
69956;SDS011;57283;54.816;9.482;2022-10-31T13:00:00;10.57;;;4.78;;
69956;SDS011;57283;54.816;9.482;2022-10-31T13:02:32;8.05;;;3.60;;
69956;SDS011;57283;54.816;9.482;2022-10-31T13:05:05;4.45;;;1.90;;
69956;SDS011;57283;54.816;9.482;2022-10-31T13:07:45;7.90;;;1.90;;
69956;SDS011;57283;54.816;9.482;2022-10-31T13:10:18;6.15;;;1.80;;
69956;SDS011;57283;54.816;9.482;2022-10-31T13:12:51;4.10;;;1.90;;
69956;SDS011;57283;54.816;9.482;2022-10-31T13:15:23;7.07;;;3.53;;
69956;SDS011;57283;54.816;9.482;2022-10-31T13:17:54;6.38;;;2.33;;
69956;SDS011;57283;54.816;9.482;2022-10-31T13:20:26;7.18;;;3.20;;
69956;SDS011;57283;54.816;9.482;2022-10-31T13:23:02;6.73;;;2.30;;
69956;SDS011;57283;54.816;9.482;2022-10-31T13:25:55;4.50;;;1.90;;
69956;SDS011;57283;54.816;9.482;2022-10-31T13:28:40;5.28;;;1.73;;
69956;SDS011;57283;54.816;9.482;2022-10-31T13:31:12;9.57;;;3.28;;
69956;SDS011;57283;54.816;9.482;2022-10-31T13:33:41;5.75;;;1.90;;
69956;SDS011;57283;54.816;9.482;2022-10-31T13:36:16;13.67;;;7.97;;
69956;SDS011;57283;54.816;9.482;2022-10-31T13:38:53;6.72;;;2.22;;
69956;SDS011;57283;54.816;9.482;2022-10-31T13:41:33;5.82;;;1.88;;
69956;SDS011;57283;54.816;9.482;2022-10-31T13:44:11;33.58;;;18.77;;
69956;SDS011;57283;54.816;9.482;2022-10-31T13:46:42;14.70;;;7.13;;
69956;SDS011;57283;54.816;9.482;2022-10-31T13:49:23;5.90;;;2.00;;
69956;SDS011;57283;54.816;9.482;2022-10-31T13:52:04;9.13;;;3.90;;
69956;SDS011;57283;54.816;9.482;2022-10-31T13:54:35;4.43;;;1.85;;
69956;SDS011;57283;54.816;9.482;2022-10-31T13:57:06;5.95;;;2.00;;
69956;SDS011;57283;54.816;9.482;2022-10-31T13:59:45;4.53;;;1.73;;
69956;SDS011;57283;54.816;9.482;2022-10-31T14:02:16;6.23;;;1.80;;
69956;SDS011;57283;54.816;9.482;2022-10-31T14:04:58;7.43;;;1.73;;
69956;SDS011;57283;54.816;9.482;2022-10-31T14:07:28;5.00;;;1.70;;
69956;SDS011;57283;54.816;9.482;2022-10-31T14:10:01;5.60;;;1.80;;
69956;SDS011;57283;54.816;9.482;2022-10-31T14:12:31;4.22;;;1.50;;
69956;SDS011;57283;54.816;9.482;2022-10-31T14:15:04;5.43;;;1.70;;
69956;SDS011;57283;54.816;9.482;2022-10-31T14:17:45;7.63;;;2.25;;
69956;SDS011;57283;54.816;9.482;2022-10-31T14:20:25;5.78;;;1.70;;
69956;SDS011;57283;54.816;9.482;2022-10-31T14:23:11;4.22;;;2.03;;
69956;SDS011;57283;54.816;9.482;2022-10-31T14:25:41;5.75;;;1.88;;
69956;SDS011;57283;54.816;9.482;2022-10-31T14:30:59;5.28;;;1.70;;
69956;SDS011;57283;54.816;9.482;2022-10-31T14:33:28;5.05;;;2.13;;
69956;SDS011;57283;54.816;9.482;2022-10-31T14:35:59;5.75;;;2.17;;
69956;SDS011;57283;54.816;9.482;2022-10-31T14:38:36;7.40;;;2.17;;
69956;SDS011;57283;54.816;9.482;2022-10-31T14:41:31;4.63;;;1.73;;
69956;SDS011;57283;54.816;9.482;2022-10-31T14:44:15;5.30;;;1.98;;
69956;SDS011;57283;54.816;9.482;2022-10-31T14:47:07;6.60;;;2.25;;
69956;SDS011;57283;54.816;9.482;2022-10-31T14:49:48;6.47;;;2.20;;
69956;SDS011;57283;54.816;9.482;2022-10-31T14:52:29;3.92;;;1.80;;
69956;SDS011;57283;54.816;9.482;2022-10-31T14:54:58;5.80;;;2.13;;
69956;SDS011;57283;54.816;9.482;2022-10-31T14:57:30;9.13;;;2.20;;
69956;SDS011;57283;54.816;9.482;2022-10-31T15:00:03;6.25;;;2.15;;
69956;SDS011;57283;54.816;9.482;2022-10-31T15:02:34;5.88;;;2.33;;
69956;SDS011;57283;54.816;9.482;2022-10-31T15:05:08;9.45;;;3.10;;
69956;SDS011;57283;54.816;9.482;2022-10-31T15:07:47;6.00;;;2.40;;
69956;SDS011;57283;54.816;9.482;2022-10-31T15:10:19;7.22;;;2.58;;
69956;SDS011;57283;54.816;9.482;2022-10-31T15:12:50;8.57;;;2.88;;
69956;SDS011;57283;54.816;9.482;2022-10-31T15:15:18;9.50;;;2.85;;
69956;SDS011;57283;54.816;9.482;2022-10-31T15:17:48;5.57;;;2.72;;